Time;durP1;ratioP1;P1;durP2;ratioP2;P2;SDS_P1;SDS_P2;PMS_P1;PMS_P2;Temp;Humidity;BMP_temperature;BMP_pressure;BME280_temperature;BME280_humidity;BME280_pressure;Samples;Min_cycle;Max_cycle;Signal;HPM_P1;HPM_P2
2023/07/22 00:02:24;;;;;;;7.30;6.70;;;14.70;1.00;;;;;;5037463;28;20560;-76
2023/07/22 00:04:52;;;;;;;7.23;6.60;;;14.70;1.00;;;;;;5039344;28;20498;-76
2023/07/22 00:07:20;;;;;;;6.63;6.13;;;14.80;1.00;;;;;;5039399;28;20489;-76
2023/07/22 00:09:48;;;;;;;7.50;6.90;;;14.80;1.00;;;;;;5035915;28;20461;-75
2023/07/22 00:12:16;;;;;;;7.60;7.00;;;14.80;1.00;;;;;;5041999;28;20537;-76
2023/07/22 00:14:44;;;;;;;7.80;7.20;;;14.90;1.00;;;;;;5038957;28;20454;-75
2023/07/22 00:17:15;;;;;;;7.77;6.97;;;14.90;1.00;;;;;;5035095;28;20466;-75
2023/07/22 00:19:42;;;;;;;8.30;6.77;;;14.90;1.00;;;;;;5041350;28;20479;-76
2023/07/22 00:22:09;;;;;;;7.57;6.97;;;14.90;1.00;;;;;;5042654;28;20479;-76
2023/07/22 00:24:38;;;;;;;7.00;6.50;;;14.90;1.00;;;;;;5039567;28;20910;-76
2023/07/22 00:27:07;;;;;;;7.50;6.87;;;14.90;1.00;;;;;;5034210;28;20572;-76
2023/07/22 00:29:34;;;;;;;7.77;7.10;;;15.00;1.00;;;;;;5036527;28;20980;-75
2023/07/22 00:32:01;;;;;;;7.07;6.47;;;15.00;1.00;;;;;;5035153;28;20483;-76
2023/07/22 00:34:30;;;;;;;8.37;7.67;;;15.00;1.00;;;;;;5030199;28;20455;-76
2023/07/22 00:36:57;;;;;;;10.27;9.37;;;15.00;1.00;;;;;;5037301;28;20496;-76
2023/07/22 00:39:25;;;;;;;8.00;7.40;;;15.00;1.00;;;;;;5032425;28;20452;-76
2023/07/22 00:41:52;;;;;;;7.50;6.90;;;15.10;1.00;;;;;;5034493;28;20486;-76
2023/07/22 00:44:19;;;;;;;8.30;7.60;;;15.00;1.00;;;;;;5034213;28;20572;-76
2023/07/22 00:46:46;;;;;;;7.30;6.70;;;15.00;1.00;;;;;;5039125;28;20579;-76
2023/07/22 00:49:16;;;;;;;8.23;7.53;;;15.10;1.00;;;;;;5032498;28;20942;-76
2023/07/22 00:51:45;;;;;;;26.73;24.43;;;15.10;1.00;;;;;;5037203;28;21137;-76
2023/07/22 00:54:12;;;;;;;7.30;6.60;;;15.20;1.00;;;;;;5039541;28;21599;-75
2023/07/22 00:56:41;;;;;;;7.13;6.53;;;15.20;1.00;;;;;;5035390;28;20502;-75
2023/07/22 00:59:09;;;;;;;7.60;7.00;;;15.20;1.00;;;;;;5034205;28;20469;-75
2023/07/22 01:01:36;;;;;;;8.00;7.40;;;15.20;1.00;;;;;;5030517;28;20458;-76
2023/07/22 01:04:04;;;;;;;7.50;7.00;;;15.20;1.00;;;;;;5038046;28;20464;-76
2023/07/22 01:06:31;;;;;;;8.10;7.30;;;15.20;1.00;;;;;;5045417;28;20456;-75
2023/07/22 01:09:00;;;;;;;7.53;6.93;;;15.20;1.00;;;;;;5041398;28;20462;-76
2023/07/22 01:11:27;;;;;;;7.97;7.37;;;15.20;1.00;;;;;;5044369;28;20475;-75
2023/07/22 01:13:57;;;;;;;7.77;6.83;;;15.30;1.00;;;;;;5046157;28;20906;-76
2023/07/22 01:16:26;;;;;;;8.33;7.73;;;15.30;1.00;;;;;;5043117;28;20455;-76
2023/07/22 01:18:54;;;;;;;7.27;6.60;;;15.30;1.00;;;;;;5040732;28;20965;-76
2023/07/22 01:21:23;;;;;;;7.77;7.17;;;15.40;1.00;;;;;;5044474;28;20472;-76
2023/07/22 01:23:52;;;;;;;7.53;6.70;;;15.40;1.00;;;;;;5041409;28;20464;-76
2023/07/22 01:26:21;;;;;;;7.87;7.27;;;15.40;1.00;;;;;;5039247;28;21426;-76
2023/07/22 01:28:48;;;;;;;8.50;7.80;;;15.50;1.00;;;;;;5043825;28;20472;-76
2023/07/22 01:31:15;;;;;;;7.30;6.80;;;15.50;1.00;;;;;;5042174;28;20503;-76
2023/07/22 01:33:44;;;;;;;8.80;8.10;;;15.60;1.00;;;;;;5042528;28;20894;-76
2023/07/22 01:36:12;;;;;;;9.83;9.07;;;15.60;1.00;;;;;;5039913;28;20846;-76
2023/07/22 01:38:40;;;;;;;8.17;7.57;;;15.60;1.00;;;;;;5043862;28;20472;-76
2023/07/22 01:41:08;;;;;;;8.47;7.70;;;15.60;1.00;;;;;;5045252;28;20513;-76
2023/07/22 01:43:35;;;;;;;8.23;7.50;;;15.70;1.00;;;;;;5041798;28;20463;-76
2023/07/22 01:46:03;;;;;;;7.30;6.70;;;15.70;1.00;;;;;;5044537;28;20492;-76
2023/07/22 01:48:30;;;;;;;8.23;7.57;;;15.70;1.00;;;;;;5040147;28;20464;-76
2023/07/22 01:50:57;;;;;;;8.10;7.40;;;15.70;1.00;;;;;;5044287;28;20495;-76
2023/07/22 01:53:24;;;;;;;7.57;6.83;;;15.70;1.00;;;;;;5035980;28;20440;-76
2023/07/22 01:55:51;;;;;;;7.97;7.37;;;15.80;1.00;;;;;;5036877;28;20424;-76
2023/07/22 01:58:20;;;;;;;7.47;6.97;;;15.80;1.00;;;;;;5037716;28;20560;-76
2023/07/22 02:00:50;;;;;;;7.73;7.13;;;15.80;1.00;;;;;;5042357;28;20491;-76
2023/07/22 02:03:17;;;;;;;7.70;7.00;;;15.80;1.00;;;;;;5040869;28;20465;-76
2023/07/22 02:05:46;;;;;;;8.07;7.37;;;15.90;1.00;;;;;;5040065;28;21104;-76
2023/07/22 02:08:13;;;;;;;8.13;7.53;;;15.90;1.00;;;;;;5045767;28;20459;-76
2023/07/22 02:10:40;;;;;;;7.87;7.10;;;15.90;1.00;;;;;;5042579;28;20563;-76
2023/07/22 02:13:08;;;;;;;7.43;6.83;;;15.80;1.00;;;;;;5019497;28;20506;-77
2023/07/22 02:15:37;;;;;;;8.63;7.93;;;15.80;1.00;;;;;;5039735;28;20980;-76
2023/07/22 02:18:05;;;;;;;11.03;8.73;;;15.80;1.00;;;;;;5040194;28;20964;-76
2023/07/22 02:20:32;;;;;;;9.13;7.80;;;15.80;1.00;;;;;;5046304;28;20482;-76
2023/07/22 02:22:59;;;;;;;7.90;7.20;;;15.70;1.00;;;;;;5047679;28;20455;-76
2023/07/22 02:25:27;;;;;;;7.27;6.67;;;15.70;1.00;;;;;;5041597;28;20470;-76
2023/07/22 02:27:54;;;;;;;7.70;7.10;;;15.70;1.00;;;;;;5043125;28;20472;-75
2023/07/22 02:30:21;;;;;;;7.07;6.37;;;15.60;1.00;;;;;;5041147;28;20493;-75
2023/07/22 02:32:50;;;;;;;6.80;6.20;;;15.50;1.00;;;;;;5037073;28;20537;-75
2023/07/22 02:35:17;;;;;;;7.00;6.40;;;15.50;1.00;;;;;;5042661;28;20522;-75
2023/07/22 02:37:44;;;;;;;6.63;6.13;;;15.50;1.00;;;;;;5041823;28;20469;-75
2023/07/22 02:40:12;;;;;;;5.40;4.90;;;15.40;1.00;;;;;;5043663;28;20492;-75
2023/07/22 02:42:39;;;;;;;6.80;6.27;;;15.40;1.00;;;;;;5043390;28;20580;-76
2023/07/22 02:45:07;;;;;;;6.73;6.13;;;15.30;1.00;;;;;;5041859;28;20462;-75
2023/07/22 02:47:35;;;;;;;5.83;5.43;;;15.10;1.00;;;;;;5044082;28;20528;-76
2023/07/22 02:50:04;;;;;;;6.40;5.87;;;15.10;1.00;;;;;;5042771;28;20602;-76
2023/07/22 02:52:32;;;;;;;7.10;6.60;;;15.10;1.00;;;;;;5044788;28;20486;-76
2023/07/22 02:55:07;;;;;;;6.40;5.90;;;15.00;1.00;;;;;;5042145;28;20471;-75
2023/07/22 02:57:36;;;;;;;6.57;6.13;;;15.00;1.00;;;;;;5041551;28;20864;-75
2023/07/22 03:00:07;;;;;;;6.97;6.40;;;15.00;1.00;;;;;;5040765;28;20483;-75
2023/07/22 03:02:34;;;;;;;7.13;5.97;;;15.00;1.00;;;;;;5041733;28;20562;-75
2023/07/22 03:05:06;;;;;;;6.23;5.73;;;14.90;1.00;;;;;;5044981;28;20455;-76
2023/07/22 03:07:33;;;;;;;7.13;5.90;;;14.90;1.00;;;;;;5042598;28;20455;-76
2023/07/22 03:10:00;;;;;;;5.60;5.10;;;14.90;1.00;;;;;;5042311;28;21277;-76
2023/07/22 03:12:27;;;;;;;9.60;6.20;;;14.80;1.00;;;;;;5041155;28;20482;-76
2023/07/22 03:14:54;;;;;;;6.20;5.70;;;14.80;1.00;;;;;;5042122;28;21779;-76
2023/07/22 03:17:21;;;;;;;6.53;5.93;;;14.80;1.00;;;;;;5042681;28;20486;-76
2023/07/22 03:19:48;;;;;;;6.63;6.10;;;14.80;1.00;;;;;;5039015;28;20601;-76
2023/07/22 03:22:18;;;;;;;5.90;5.40;;;14.80;1.00;;;;;;5041859;28;20465;-76
2023/07/22 03:24:46;;;;;;;5.70;5.30;;;14.70;1.00;;;;;;5042602;28;20463;-76
2023/07/22 03:27:15;;;;;;;5.40;5.00;;;14.70;1.00;;;;;;5040126;28;20466;-76
2023/07/22 03:29:42;;;;;;;5.40;4.73;;;14.70;1.00;;;;;;5045541;28;20520;-76
2023/07/22 03:32:10;;;;;;;5.40;5.00;;;14.70;1.00;;;;;;5044989;28;20498;-76
2023/07/22 03:34:36;;;;;;;5.30;4.90;;;14.70;1.00;;;;;;5044535;28;20466;-77
2023/07/22 03:37:04;;;;;;;5.33;4.93;;;14.70;1.00;;;;;;5044581;28;20485;-77
2023/07/22 03:39:32;;;;;;;5.77;5.37;;;14.70;1.00;;;;;;5040481;28;20468;-75
2023/07/22 03:41:59;;;;;;;6.77;4.53;;;14.70;1.00;;;;;;5043266;28;20469;-76
2023/07/22 03:44:28;;;;;;;6.13;5.10;;;14.70;1.00;;;;;;5033367;28;20455;-75
2023/07/22 03:46:55;;;;;;;5.83;5.43;;;14.80;1.00;;;;;;5030642;28;20473;-75
2023/07/22 03:49:22;;;;;;;5.50;5.00;;;14.80;1.00;;;;;;5033299;28;20463;-75
2023/07/22 03:51:50;;;;;;;6.90;6.20;;;14.80;1.00;;;;;;5034990;28;20491;-76
2023/07/22 03:54:16;;;;;;;6.57;5.97;;;14.90;1.00;;;;;;5032702;28;20467;-76
2023/07/22 03:56:45;;;;;;;5.73;5.33;;;14.90;1.00;;;;;;5031366;28;20935;-76
2023/07/22 03:59:12;;;;;;;5.87;5.30;;;14.90;1.00;;;;;;5034948;28;20508;-76
2023/07/22 04:01:41;;;;;;;6.67;6.07;;;14.90;1.00;;;;;;5033196;28;20455;-75
2023/07/22 04:04:09;;;;;;;7.07;5.27;;;14.90;1.00;;;;;;5028010;28;20490;-76
2023/07/22 04:06:36;;;;;;;5.73;5.33;;;14.90;1.00;;;;;;5037071;28;21065;-76
2023/07/22 04:09:03;;;;;;;6.13;5.70;;;15.00;1.00;;;;;;5037099;28;20577;-76
2023/07/22 04:11:30;;;;;;;5.70;5.20;;;15.00;1.00;;;;;;5042142;28;20479;-76
2023/07/22 04:13:59;;;;;;;5.90;5.43;;;15.00;1.00;;;;;;5043371;28;20483;-76
2023/07/22 04:16:26;;;;;;;6.00;5.50;;;14.90;1.00;;;;;;5040443;28;20545;-75
2023/07/22 04:18:53;;;;;;;6.47;5.87;;;15.00;1.00;;;;;;5040709;28;20483;-76
2023/07/22 04:21:20;;;;;;;6.67;5.27;;;15.00;1.00;;;;;;5037261;28;20931;-76
2023/07/22 04:23:48;;;;;;;5.90;4.97;;;15.00;1.00;;;;;;5042454;28;20470;-76
2023/07/22 04:26:15;;;;;;;23.00;18.50;;;15.00;1.00;;;;;;5030669;28;20491;-76
2023/07/22 04:28:42;;;;;;;7.20;6.60;;;15.00;1.00;;;;;;5041733;28;20622;-76
2023/07/22 04:31:11;;;;;;;6.47;5.20;;;15.00;1.00;;;;;;5039013;28;20545;-76
2023/07/22 04:33:38;;;;;;;5.30;4.80;;;15.00;1.00;;;;;;5038879;28;20533;-76
2023/07/22 04:36:06;;;;;;;5.10;4.60;;;15.10;1.00;;;;;;5032298;28;20517;-75
2023/07/22 04:38:33;;;;;;;6.20;5.70;;;15.10;1.00;;;;;;5042899;28;20486;-76
2023/07/22 04:41:02;;;;;;;6.27;5.20;;;15.10;1.00;;;;;;5040741;28;20481;-76
2023/07/22 04:43:29;;;;;;;7.43;6.37;;;15.10;1.00;;;;;;5040658;28;20602;-76
2023/07/22 04:45:56;;;;;;;6.73;5.57;;;15.10;1.00;;;;;;5040753;28;20503;-75
2023/07/22 04:48:25;;;;;;;7.90;5.40;;;15.10;1.00;;;;;;5037987;28;20475;-75
2023/07/22 04:50:52;;;;;;;8.80;6.70;;;15.10;1.00;;;;;;5036611;28;20472;-75
2023/07/22 04:53:20;;;;;;;5.90;5.20;;;15.10;1.00;;;;;;5042392;28;20961;-75
2023/07/22 04:55:47;;;;;;;6.07;5.57;;;15.10;1.00;;;;;;5037108;28;20470;-75
2023/07/22 04:58:15;;;;;;;5.93;5.43;;;15.10;1.00;;;;;;5039948;28;20934;-76
2023/07/22 05:00:42;;;;;;;6.63;5.97;;;15.10;1.00;;;;;;5037319;28;20464;-76
2023/07/22 05:03:09;;;;;;;6.63;5.93;;;15.10;1.00;;;;;;5034213;28;20595;-75
2023/07/22 05:05:38;;;;;;;6.30;5.80;;;15.10;1.00;;;;;;5041529;28;20529;-75
2023/07/22 05:08:07;;;;;;;6.10;5.50;;;15.10;1.00;;;;;;5028359;28;20467;-76
2023/07/22 05:10:34;;;;;;;5.50;5.00;;;15.20;1.00;;;;;;5030395;28;20457;-77
2023/07/22 05:13:01;;;;;;;6.93;6.23;;;15.30;1.00;;;;;;5031241;28;20535;-76
2023/07/22 05:15:28;;;;;;;5.90;5.37;;;15.30;1.00;;;;;;5036105;28;20505;-77
2023/07/22 05:17:55;;;;;;;6.40;5.87;;;15.30;1.00;;;;;;5042261;28;20563;-80
2023/07/22 05:20:22;;;;;;;6.80;6.10;;;15.30;1.00;;;;;;5040773;28;20909;-77
2023/07/22 05:22:50;;;;;;;6.10;5.50;;;15.30;1.00;;;;;;5041259;28;20461;-76
2023/07/22 05:25:17;;;;;;;6.83;5.97;;;15.40;1.00;;;;;;5045648;28;20521;-77
2023/07/22 05:27:44;;;;;;;6.57;5.97;;;15.50;1.00;;;;;;5043593;28;20472;-76
2023/07/22 05:30:12;;;;;;;7.00;5.50;;;15.60;1.00;;;;;;5049358;28;20586;-76
2023/07/22 05:32:39;;;;;;;6.93;6.33;;;15.70;1.00;;;;;;5040369;28;20460;-77
2023/07/22 05:35:07;;;;;;;7.27;6.57;;;15.70;1.00;;;;;;5045447;28;20556;-78
2023/07/22 05:37:34;;;;;;;7.70;6.90;;;15.80;1.00;;;;;;5040023;28;21749;-78
2023/07/22 05:40:03;;;;;;;7.20;6.50;;;16.00;1.00;;;;;;5045460;28;20472;-79
2023/07/22 05:42:30;;;;;;;8.57;7.33;;;16.10;1.00;;;;;;5049289;28;20460;-78
2023/07/22 05:44:59;;;;;;;7.47;6.77;;;16.20;1.00;;;;;;5050714;28;20498;-80
2023/07/22 05:47:27;;;;;;;8.47;7.67;;;16.30;1.00;;;;;;5049886;28;21289;-78
2023/07/22 05:50:00;;;;;;;9.27;8.30;;;16.30;1.00;;;;;;5055146;28;20489;-80
2023/07/22 05:52:27;;;;;;;8.70;7.50;;;16.30;1.00;;;;;;5050963;28;20520;-78
2023/07/22 05:54:54;;;;;;;8.20;7.40;;;16.30;1.00;;;;;;5051156;28;20550;-82
2023/07/22 05:57:22;;;;;;;9.53;8.50;;;16.30;1.00;;;;;;5040371;28;20511;-80
2023/07/22 05:59:49;;;;;;;8.20;7.40;;;16.40;1.00;;;;;;5048152;28;20452;-82
2023/07/22 06:02:19;;;;;;;9.57;8.57;;;16.40;1.00;;;;;;5050062;28;20429;-79
2023/07/22 06:04:46;;;;;;;9.60;8.53;;;16.50;1.00;;;;;;5054270;28;20511;-81
2023/07/22 06:07:13;;;;;;;8.37;7.67;;;16.50;1.00;;;;;;5053099;28;20604;-82
2023/07/22 06:09:40;;;;;;;10.47;7.90;;;16.60;1.00;;;;;;5049653;28;20455;-82
2023/07/22 06:12:08;;;;;;;14.80;12.30;;;16.60;1.00;;;;;;5049633;28;20555;-79
2023/07/22 06:14:36;;;;;;;9.90;8.90;;;16.70;1.00;;;;;;5051196;28;20464;-77
2023/07/22 06:17:03;;;;;;;9.00;7.50;;;16.60;1.00;;;;;;5049996;28;20553;-78
2023/07/22 06:19:30;;;;;;;11.80;10.30;;;16.60;1.00;;;;;;5050926;28;20451;-78
2023/07/22 06:21:57;;;;;;;8.87;8.07;;;16.70;1.00;;;;;;5051261;28;20472;-79
2023/07/22 06:24:25;;;;;;;8.47;7.63;;;16.80;1.00;;;;;;5068984;28;20446;-81
2023/07/22 06:26:54;;;;;;;9.50;8.00;;;16.80;1.00;;;;;;5064897;28;20444;-82
2023/07/22 06:29:21;;;;;;;10.50;9.40;;;16.80;1.00;;;;;;5059272;28;20555;-83
2023/07/22 06:31:54;;;;;;;8.00;7.30;;;16.90;1.00;;;;;;5058450;28;20552;-82
2023/07/22 06:34:26;;;;;;;8.73;7.60;;;17.00;1.00;;;;;;5064629;28;20449;-78
2023/07/22 06:36:53;;;;;;;7.80;7.00;;;17.10;1.00;;;;;;5055910;28;20499;-79
2023/07/22 06:39:20;;;;;;;7.63;6.90;;;17.00;1.00;;;;;;5047576;28;20471;-79
2023/07/22 06:41:48;;;;;;;7.87;7.17;;;17.10;1.00;;;;;;5055894;28;20535;-79
2023/07/22 06:44:15;;;;;;;7.97;7.03;;;17.20;1.00;;;;;;5036011;28;20456;-79
2023/07/22 06:46:44;;;;;;;7.13;6.50;;;17.30;1.00;;;;;;5056001;28;20491;-79
2023/07/22 06:49:12;;;;;;;10.87;6.73;;;17.30;1.00;;;;;;5053813;28;20439;-78
2023/07/22 06:51:41;;;;;;;6.10;5.60;;;17.30;1.00;;;;;;5051685;28;20555;-78
2023/07/22 06:54:08;;;;;;;8.50;6.97;;;17.40;1.00;;;;;;5055988;28;20534;-78
2023/07/22 06:56:35;;;;;;;6.50;5.83;;;17.50;1.00;;;;;;5045947;28;20519;-76
2023/07/22 06:59:03;;;;;;;6.67;6.07;;;17.50;1.00;;;;;;5045198;28;20984;-76
2023/07/22 07:01:34;;;;;;;7.47;6.10;;;17.60;1.00;;;;;;5041393;28;20467;-80
2023/07/22 07:04:01;;;;;;;7.73;6.80;;;17.70;1.00;;;;;;5045466;28;20544;-79
2023/07/22 07:06:31;;;;;;;6.93;6.17;;;17.60;1.00;;;;;;5047448;28;20460;-79
2023/07/22 07:09:01;;;;;;;7.30;5.30;;;17.70;1.00;;;;;;5042460;28;20456;-79
2023/07/22 07:11:29;;;;;;;6.50;4.83;;;17.80;1.00;;;;;;5052024;28;20448;-82
2023/07/22 07:13:57;;;;;;;5.77;4.73;;;17.90;1.00;;;;;;5055122;28;20465;-82
2023/07/22 07:16:26;;;;;;;6.13;5.27;;;18.00;1.00;;;;;;5047971;28;20461;-81
2023/07/22 07:18:53;;;;;;;5.50;4.37;;;17.90;1.00;;;;;;5052304;28;20464;-82
2023/07/22 07:21:20;;;;;;;5.10;4.40;;;18.00;1.00;;;;;;5045086;28;20460;-81
2023/07/22 07:23:49;;;;;;;4.90;4.07;;;18.00;1.00;;;;;;5051290;28;20460;-80
2023/07/22 07:26:19;;;;;;;5.03;4.10;;;18.20;1.00;;;;;;5050081;28;20620;-83
2023/07/22 07:28:47;;;;;;;5.63;4.23;;;18.50;1.00;;;;;;5038358;28;20567;-82
2023/07/22 07:31:14;;;;;;;4.70;4.10;;;18.40;1.00;;;;;;5052655;28;20568;-81
2023/07/22 07:33:41;;;;;;;5.80;4.13;;;18.40;1.00;;;;;;5051438;28;20457;-80
2023/07/22 07:36:08;;;;;;;4.40;4.00;;;18.50;1.00;;;;;;5044994;28;20445;-80
2023/07/22 07:38:35;;;;;;;6.97;4.90;;;18.60;1.00;;;;;;5033965;28;20460;-80
2023/07/22 07:41:08;;;;;;;4.87;4.37;;;18.70;1.00;;;;;;5035803;28;21453;-77
2023/07/22 07:43:38;;;;;;;8.17;4.23;;;19.00;1.00;;;;;;5043170;28;20452;-83
2023/07/22 07:46:20;;;;;;;8.00;5.00;;;19.10;1.00;;;;;;5053835;28;20481;-80
2023/07/22 07:48:48;;;;;;;7.80;4.90;;;19.10;1.00;;;;;;5039314;28;20791;-78
2023/07/22 07:51:16;;;;;;;5.30;4.40;;;19.00;1.00;;;;;;5041804;28;22001;-80
2023/07/22 07:53:45;;;;;;;4.90;4.40;;;19.00;1.00;;;;;;5045834;28;20460;-79
2023/07/22 07:56:14;;;;;;;7.50;6.80;;;19.00;1.00;;;;;;5048731;28;20480;-81
2023/07/22 07:58:44;;;;;;;5.50;5.00;;;19.00;1.00;;;;;;5040460;28;20465;-82
2023/07/22 08:01:12;;;;;;;5.80;4.23;;;19.10;1.00;;;;;;5034316;28;20425;-80
2023/07/22 08:03:43;;;;;;;5.00;4.50;;;19.20;1.00;;;;;;5049891;28;20472;-78
2023/07/22 08:06:10;;;;;;;4.50;4.10;;;19.10;1.00;;;;;;5050133;28;20522;-81
2023/07/22 08:08:38;;;;;;;5.10;4.30;;;19.10;1.00;;;;;;5051198;28;21593;-81
2023/07/22 08:11:07;;;;;;;6.87;4.70;;;19.20;1.00;;;;;;5053311;28;20513;-80
2023/07/22 08:13:36;;;;;;;5.00;4.50;;;19.30;1.00;;;;;;5051258;28;20462;-85
2023/07/22 08:16:04;;;;;;;5.43;4.53;;;19.70;1.00;;;;;;5053661;28;20550;-82
2023/07/22 08:18:32;;;;;;;5.50;4.63;;;19.80;1.00;;;;;;5055345;28;20459;-80
2023/07/22 08:20:59;;;;;;;5.63;4.47;;;20.00;1.00;;;;;;5047675;28;20470;-79
2023/07/22 08:23:26;;;;;;;4.37;3.97;;;20.10;1.00;;;;;;5050627;28;20486;-81
2023/07/22 08:25:53;;;;;;;4.53;4.13;;;19.90;1.00;;;;;;5053414;28;20448;-80
2023/07/22 08:28:20;;;;;;;5.60;4.57;;;19.60;1.00;;;;;;5055845;28;20452;-80
2023/07/22 08:30:49;;;;;;;4.73;4.20;;;19.60;1.00;;;;;;5054094;28;20545;-81
2023/07/22 08:33:19;;;;;;;5.10;4.57;;;19.80;1.00;;;;;;5055278;28;20457;-83
2023/07/22 08:35:47;;;;;;;4.60;3.60;;;19.90;1.00;;;;;;5055736;28;20560;-81
2023/07/22 08:38:15;;;;;;;4.63;4.10;;;20.10;1.00;;;;;;5050152;28;20529;-81
2023/07/22 08:40:42;;;;;;;8.10;5.33;;;20.10;1.00;;;;;;5053097;28;20554;-80
2023/07/22 08:43:11;;;;;;;5.50;4.23;;;20.20;1.00;;;;;;5050731;28;20471;-83
2023/07/22 08:45:40;;;;;;;6.47;4.70;;;20.30;1.00;;;;;;5056579;28;20515;-80
2023/07/22 08:48:09;;;;;;;6.50;4.83;;;20.40;1.00;;;;;;5050410;28;20841;-80
2023/07/22 08:50:44;;;;;;;5.40;4.90;;;20.30;1.00;;;;;;5045206;28;20466;-78
2023/07/22 08:53:14;;;;;;;5.23;4.10;;;20.30;1.00;;;;;;5035185;28;20525;-79
2023/07/22 08:55:42;;;;;;;5.70;4.40;;;20.30;1.00;;;;;;5039957;28;21053;-77
2023/07/22 08:58:13;;;;;;;5.40;4.13;;;20.20;1.00;;;;;;5037738;28;20463;-77
2023/07/22 09:00:41;;;;;;;4.87;4.43;;;20.10;1.00;;;;;;5043194;28;20581;-77
2023/07/22 09:03:10;;;;;;;5.33;4.57;;;19.90;1.00;;;;;;5045302;28;20492;-78
2023/07/22 09:05:38;;;;;;;7.40;4.97;;;19.90;1.00;;;;;;5047206;28;20478;-78
2023/07/22 09:08:07;;;;;;;5.50;4.43;;;20.30;1.00;;;;;;5038507;28;20520;-78
2023/07/22 09:10:37;;;;;;;4.93;4.53;;;20.50;1.00;;;;;;5043603;28;20921;-77
2023/07/22 09:13:06;;;;;;;5.97;4.57;;;20.50;1.00;;;;;;5046556;28;20468;-79
2023/07/22 09:15:36;;;;;;;5.17;4.63;;;20.40;1.00;;;;;;5046015;28;20603;-76
2023/07/22 09:18:04;;;;;;;4.73;4.33;;;20.30;1.00;;;;;;5041924;28;20543;-76
2023/07/22 09:20:34;;;;;;;4.50;4.10;;;20.50;1.00;;;;;;5036963;28;20538;-82
2023/07/22 09:23:01;;;;;;;5.60;5.00;;;20.70;1.00;;;;;;5038445;28;20464;-84
2023/07/22 09:25:29;;;;;;;6.80;4.40;;;20.90;1.00;;;;;;5047764;28;20470;-83
2023/07/22 09:27:59;;;;;;;5.57;4.20;;;20.80;1.00;;;;;;5047442;28;20467;-82
2023/07/22 09:30:28;;;;;;;6.80;4.27;;;20.80;1.00;;;;;;5035736;28;21058;-84
2023/07/22 09:32:58;;;;;;;4.87;4.47;;;21.10;1.00;;;;;;5048183;28;20457;-83
2023/07/22 09:35:27;;;;;;;5.10;4.60;;;21.40;1.00;;;;;;5051164;28;20465;-84
2023/07/22 09:37:56;;;;;;;5.77;4.33;;;21.90;1.00;;;;;;5047662;28;20467;-83
2023/07/22 09:40:25;;;;;;;4.67;4.13;;;22.50;1.00;;;;;;5045738;28;20447;-85
2023/07/22 09:42:54;;;;;;;4.53;3.93;;;22.90;1.00;;;;;;5047522;28;20800;-83
2023/07/22 09:45:24;;;;;;;6.17;4.87;;;23.60;1.00;;;;;;5045441;28;20479;-83
2023/07/22 09:47:52;;;;;;;4.77;4.30;;;23.70;1.00;;;;;;5049214;28;21273;-84
2023/07/22 09:50:22;;;;;;;4.33;3.90;;;23.60;1.00;;;;;;5048360;28;20470;-83
2023/07/22 09:52:50;;;;;;;6.33;5.83;;;24.30;1.00;;;;;;5048353;28;20549;-84
2023/07/22 09:55:20;;;;;;;3.87;3.50;;;25.10;1.00;;;;;;5045383;28;20563;-82
2023/07/22 09:57:50;;;;;;;4.20;3.23;;;26.10;1.00;;;;;;5050117;28;20459;-83
2023/07/22 10:00:20;;;;;;;4.30;3.90;;;26.30;1.00;;;;;;5051147;28;20472;-84
2023/07/22 10:02:49;;;;;;;4.83;3.93;;;25.60;1.00;;;;;;5052199;28;20472;-83
2023/07/22 10:05:17;;;;;;;3.90;3.60;;;24.90;1.00;;;;;;5051715;28;20438;-83
2023/07/22 10:07:49;;;;;;;3.97;3.30;;;24.50;1.00;;;;;;5053787;28;20455;-83
2023/07/22 10:10:17;;;;;;;4.90;3.40;;;24.70;1.00;;;;;;5047691;28;20436;-84
2023/07/22 10:12:46;;;;;;;4.00;3.53;;;25.70;1.00;;;;;;5044780;28;20465;-84
2023/07/22 10:15:15;;;;;;;3.50;3.20;;;25.60;1.00;;;;;;5048724;28;20474;-83
2023/07/22 10:17:43;;;;;;;3.97;3.60;;;25.00;1.00;;;;;;5030587;28;20463;-85
2023/07/22 10:20:14;;;;;;;4.20;3.60;;;24.40;1.00;;;;;;5046372;28;20462;-83
2023/07/22 10:22:44;;;;;;;3.83;3.23;;;23.70;1.00;;;;;;5047811;28;20519;-83
2023/07/22 10:25:12;;;;;;;4.07;3.67;;;23.00;1.00;;;;;;5049023;28;21035;-83
2023/07/22 10:27:41;;;;;;;4.13;3.27;;;23.30;1.00;;;;;;5050198;28;20449;-83
2023/07/22 10:30:11;;;;;;;3.73;3.43;;;24.10;1.00;;;;;;5041782;28;20450;-84
2023/07/22 10:32:40;;;;;;;4.50;3.57;;;25.80;1.00;;;;;;5044774;28;20484;-84
2023/07/22 10:35:11;;;;;;;5.20;3.47;;;26.10;1.00;;;;;;5039162;28;20481;-83
2023/07/22 10:37:41;;;;;;;5.30;3.23;;;25.50;1.00;;;;;;5053390;28;20877;-78
2023/07/22 10:40:28;;;;;;;3.80;3.37;;;24.80;1.00;;;;;;5051276;28;20520;-79
2023/07/22 10:42:59;;;;;;;3.60;3.30;;;25.10;1.00;;;;;;5041339;28;20486;-82
2023/07/22 10:45:42;;;;;;;3.33;3.03;;;25.80;1.00;;;;;;5045946;28;20500;-80
2023/07/22 10:48:11;;;;;;;4.47;3.93;;;26.30;1.00;;;;;;5052317;28;20441;-81
2023/07/22 10:50:43;;;;;;;3.70;3.40;;;25.50;1.00;;;;;;5048501;28;20583;-79
2023/07/22 10:53:11;;;;;;;4.33;3.57;;;24.30;1.00;;;;;;5031525;28;20917;-79
2023/07/22 10:56:11;;;;;;;3.63;3.33;;;24.30;1.00;;;;;;5043219;28;20477;-80
2023/07/22 10:58:57;;;;;;;4.10;3.43;;;25.50;1.00;;;;;;5044623;28;20519;-78
2023/07/22 11:01:32;;;;;;;7.60;3.67;;;26.10;1.00;;;;;;5045709;28;20460;-79
2023/07/22 11:04:12;;;;;;;4.60;4.20;;;25.50;1.00;;;;;;5042566;28;20463;-80
2023/07/22 11:06:52;;;;;;;4.60;3.67;;;24.90;1.00;;;;;;5052461;28;20425;-85
2023/07/22 11:09:37;;;;;;;4.30;3.90;;;24.60;1.00;;;;;;5051188;28;20584;-86
2023/07/22 11:12:06;;;;;;;4.83;4.33;;;24.40;1.00;;;;;;5057070;28;20460;-84
2023/07/22 11:14:35;;;;;;;4.27;3.87;;;24.30;1.00;;;;;;5058728;28;20428;-82
2023/07/22 11:17:05;;;;;;;3.97;3.60;;;24.70;1.00;;;;;;5051234;28;20464;-80
2023/07/22 11:19:33;;;;;;;4.77;4.10;;;25.90;1.00;;;;;;5045691;28;21543;-83
2023/07/22 11:22:01;;;;;;;4.40;4.00;;;27.20;1.00;;;;;;5046612;28;20497;-85
2023/07/22 11:24:28;;;;;;;4.53;4.13;;;28.00;1.00;;;;;;5054461;28;21017;-85
2023/07/22 11:26:56;;;;;;;4.87;4.47;;;28.50;1.00;;;;;;5056712;28;20572;-83
2023/07/22 11:29:23;;;;;;;3.90;3.37;;;28.00;1.00;;;;;;5048096;28;20483;-81
2023/07/22 11:31:53;;;;;;;4.10;3.57;;;26.80;1.00;;;;;;5045319;28;20455;-82
2023/07/22 11:34:24;;;;;;;4.10;3.80;;;25.80;1.00;;;;;;5055450;28;20881;-80
2023/07/22 11:36:53;;;;;;;7.43;4.80;;;25.10;1.00;;;;;;5055389;28;20470;-81
2023/07/22 11:39:21;;;;;;;4.20;3.77;;;25.60;1.00;;;;;;5047567;28;20461;-83
2023/07/22 11:41:49;;;;;;;5.17;4.40;;;27.20;1.00;;;;;;5052352;28;20454;-81
2023/07/22 11:44:20;;;;;;;4.67;4.07;;;28.40;1.00;;;;;;5043737;28;20473;-78
2023/07/22 11:46:54;;;;;;;4.83;4.03;;;29.30;1.00;;;;;;5054195;28;20478;-78
2023/07/22 11:49:28;;;;;;;5.07;4.57;;;29.80;1.00;;;;;;5053714;28;20478;-82
2023/07/22 11:51:59;;;;;;;4.23;3.93;;;29.90;1.00;;;;;;5050701;28;20557;-82
2023/07/22 11:54:27;;;;;;;5.17;4.67;;;30.10;1.00;;;;;;5053297;28;20541;-80
2023/07/22 11:56:54;;;;;;;4.07;3.60;;;31.20;1.00;;;;;;5050683;28;20536;-81
2023/07/22 11:59:44;;;;;;;5.93;4.40;;;31.80;1.00;;;;;;5045883;28;20472;-76
2023/07/22 12:02:16;;;;;;;3.67;3.37;;;32.10;1.00;;;;;;5040201;28;20459;-75
2023/07/22 12:04:51;;;;;;;4.87;4.37;;;32.00;1.00;;;;;;5045512;28;20487;-75
2023/07/22 12:07:28;;;;;;;4.53;4.00;;;32.40;1.00;;;;;;5044627;28;20484;-75
2023/07/22 12:09:58;;;;;;;4.33;3.93;;;32.40;1.00;;;;;;5042712;28;20460;-75
2023/07/22 12:12:33;;;;;;;4.63;4.23;;;32.60;1.00;;;;;;5046355;28;20870;-75
2023/07/22 12:15:04;;;;;;;5.27;4.80;;;33.00;1.00;;;;;;5050144;28;20870;-78
2023/07/22 12:17:45;;;;;;;4.00;3.70;;;33.40;1.00;;;;;;5046346;28;20496;-76
2023/07/22 12:20:15;;;;;;;7.90;7.10;;;33.10;1.00;;;;;;5043012;28;20460;-78
2023/07/22 12:22:43;;;;;;;4.33;3.90;;;32.20;1.00;;;;;;5046849;28;20463;-77
2023/07/22 12:25:10;;;;;;;4.40;4.10;;;31.10;1.00;;;;;;5044991;28;20961;-78
2023/07/22 12:27:40;;;;;;;4.87;4.17;;;29.50;1.00;;;;;;5039636;28;20554;-74
2023/07/22 12:30:09;;;;;;;4.67;4.00;;;29.70;1.00;;;;;;5045856;28;20483;-77
2023/07/22 12:32:36;;;;;;;3.97;3.63;;;31.00;1.00;;;;;;5043973;28;20542;-74
2023/07/22 12:35:03;;;;;;;4.90;4.50;;;32.30;1.00;;;;;;5045134;28;20845;-77
2023/07/22 12:37:32;;;;;;;4.20;3.53;;;33.40;1.00;;;;;;5046127;28;20845;-76
2023/07/22 12:39:59;;;;;;;6.10;5.20;;;33.80;1.00;;;;;;5042256;28;20990;-76
2023/07/22 12:42:27;;;;;;;5.57;4.93;;;33.10;1.00;;;;;;5044741;28;20563;-76
2023/07/22 12:44:54;;;;;;;4.43;4.13;;;32.50;1.00;;;;;;5046869;28;20463;-77
2023/07/22 12:47:22;;;;;;;4.60;4.20;;;33.10;1.00;;;;;;5046940;28;21006;-76
2023/07/22 12:49:49;;;;;;;6.20;4.20;;;33.20;1.00;;;;;;5045369;28;20535;-77
2023/07/22 12:52:19;;;;;;;4.40;4.00;;;31.60;1.00;;;;;;5046283;28;21421;-75
2023/07/22 12:54:47;;;;;;;4.43;4.03;;;32.00;1.00;;;;;;5041309;28;20473;-76
2023/07/22 12:57:14;;;;;;;4.97;4.57;;;32.50;1.00;;;;;;5039477;28;20476;-77
2023/07/22 12:59:42;;;;;;;5.23;4.83;;;32.00;1.00;;;;;;5042980;28;20460;-76
2023/07/22 13:02:09;;;;;;;4.60;4.20;;;31.40;1.00;;;;;;5030201;28;20951;-74
2023/07/22 13:04:36;;;;;;;4.83;4.40;;;31.30;1.00;;;;;;5045019;28;20471;-75
2023/07/22 13:07:03;;;;;;;4.27;3.93;;;31.40;1.00;;;;;;5043631;28;21016;-75